Time;durP1;ratioP1;P1;durP2;ratioP2;P2;SDS_P1;SDS_P2;PMS_P1;PMS_P2;Temp;Humidity;BMP_temperature;BMP_pressure;BME280_temperature;BME280_humidity;BME280_pressure;Samples;Min_cycle;Max_cycle;Signal;HPM_P1;HPM_P2
2023/12/08 00:00:48;;;;;;;16.45;10.00;;;;;;;1.78;99.56;100876.53;6102459;23;20101;-76
2023/12/08 00:03:15;;;;;;;17.38;11.48;;;;;;;1.79;99.54;100870.16;6101797;23;20042;-76
2023/12/08 00:05:42;;;;;;;15.63;9.52;;;;;;;1.78;99.36;100866.03;6076406;23;20432;-76
2023/12/08 00:08:09;;;;;;;21.17;10.82;;;;;;;1.77;99.54;100861.91;6102387;23;20019;-76
2023/12/08 00:10:35;;;;;;;20.05;11.50;;;;;;;1.77;99.92;100856.66;6101756;23;20019;-76
2023/12/08 00:13:02;;;;;;;17.63;10.82;;;;;;;1.78;99.93;100842.41;6102163;23;20083;-76
2023/12/08 00:15:29;;;;;;;22.55;12.27;;;;;;;1.78;100.00;100834.53;6100978;23;20437;-76
2023/12/08 00:17:55;;;;;;;17.35;10.95;;;;;;;1.79;100.00;100838.66;6101956;23;20125;-76
2023/12/08 00:20:23;;;;;;;17.70;10.88;;;;;;;1.80;100.00;100829.66;6101401;23;20023;-76
2023/12/08 00:22:50;;;;;;;17.55;10.52;;;;;;;1.80;100.00;100824.41;6101701;23;20014;-76
2023/12/08 00:25:17;;;;;;;16.08;10.75;;;;;;;1.80;100.00;100834.91;6101761;23;20046;-76
2023/12/08 00:27:43;;;;;;;19.33;11.55;;;;;;;1.83;100.00;100834.16;6101832;23;20051;-76
2023/12/08 00:30:11;;;;;;;19.88;10.35;;;;;;;1.82;100.00;100836.03;6076596;23;20019;-75
2023/12/08 00:32:38;;;;;;;18.23;11.73;;;;;;;1.82;100.00;100835.28;6101357;23;20085;-75
2023/12/08 00:35:05;;;;;;;23.35;11.77;;;;;;;1.82;100.00;100827.41;6101928;23;20018;-75
2023/12/08 00:37:32;;;;;;;19.35;11.70;;;;;;;1.81;100.00;100816.16;6075961;23;20030;-75
2023/12/08 00:40:00;;;;;;;18.35;11.18;;;;;;;1.81;100.00;100807.53;6101639;23;20519;-75
2023/12/08 00:42:27;;;;;;;22.27;12.15;;;;;;;1.82;100.00;100801.16;6100702;23;20011;-75
2023/12/08 00:44:54;;;;;;;19.27;11.43;;;;;;;1.83;100.00;100781.66;6101718;23;20018;-75
2023/12/08 00:47:21;;;;;;;20.17;12.13;;;;;;;1.83;100.00;100784.28;6101727;23;20054;-75
2023/12/08 00:49:47;;;;;;;16.63;10.80;;;;;;;1.82;100.00;100777.53;6101632;23;20019;-75
2023/12/08 00:52:14;;;;;;;18.45;11.75;;;;;;;1.83;100.00;100771.16;6101809;23;20039;-75
2023/12/08 00:54:41;;;;;;;18.88;12.40;;;;;;;1.84;100.00;100759.53;6101637;23;20019;-75
2023/12/08 00:57:08;;;;;;;17.90;11.77;;;;;;;1.84;100.00;100749.78;6102057;23;20026;-75
2023/12/08 00:59:35;;;;;;;17.70;11.77;;;;;;;1.83;100.00;100737.78;6100864;23;20019;-74
2023/12/08 01:02:01;;;;;;;22.40;12.38;;;;;;;1.84;100.00;100746.41;6101920;23;20097;-75
2023/12/08 01:04:29;;;;;;;20.45;12.40;;;;;;;1.85;100.00;100766.28;6075875;23;20015;-75
2023/12/08 01:06:55;;;;;;;20.42;11.50;;;;;;;1.84;100.00;100767.41;6102109;23;20106;-75
2023/12/08 01:09:22;;;;;;;20.15;10.70;;;;;;;1.83;100.00;100756.16;6100094;23;20019;-75
2023/12/08 01:11:49;;;;;;;18.73;11.93;;;;;;;1.83;100.00;100758.03;6076600;23;20070;-75
2023/12/08 01:14:15;;;;;;;19.48;12.07;;;;;;;1.83;100.00;100763.28;6101363;23;20015;-75
2023/12/08 01:16:43;;;;;;;19.95;12.23;;;;;;;1.83;100.00;100771.91;6101471;23;20019;-75
2023/12/08 01:19:10;;;;;;;18.58;12.05;;;;;;;1.82;100.00;100773.03;6101543;23;20015;-75
2023/12/08 01:21:38;;;;;;;19.10;11.52;;;;;;;1.82;100.00;100769.66;6101465;23;20019;-75
2023/12/08 01:24:06;;;;;;;17.95;11.35;;;;;;;1.85;100.00;100758.41;6102130;23;20015;-75
2023/12/08 01:26:32;;;;;;;16.33;10.98;;;;;;;1.85;100.00;100750.53;6099522;23;20409;-75
2023/12/08 01:28:59;;;;;;;17.58;12.05;;;;;;;1.85;100.00;100758.41;6099953;23;20057;-75
2023/12/08 01:31:26;;;;;;;19.70;11.43;;;;;;;1.86;100.00;100752.78;6074271;23;20353;-75
2023/12/08 01:33:52;;;;;;;19.27;11.80;;;;;;;1.85;100.00;100756.53;6099866;23;20094;-75
2023/12/08 01:36:19;;;;;;;22.10;11.85;;;;;;;1.86;100.00;100757.28;6099864;23;20047;-75
2023/12/08 01:39:06;;;;;;;19.17;10.52;;;;;;;1.86;100.00;100755.41;6100059;23;20541;-75
2023/12/08 01:41:33;;;;;;;16.55;11.02;;;;;;;1.86;100.00;100762.53;6099760;23;20015;-75
2023/12/08 01:44:00;;;;;;;16.85;12.02;;;;;;;1.86;100.00;100752.03;6051522;23;20026;-75
2023/12/08 01:46:28;;;;;;;19.20;10.98;;;;;;;1.86;100.00;100762.53;6100591;23;20050;-75
2023/12/08 01:48:55;;;;;;;17.95;11.10;;;;;;;1.87;100.00;100771.91;6101259;23;20043;-75
2023/12/08 01:51:22;;;;;;;17.65;10.60;;;;;;;1.86;100.00;100762.53;6100290;23;20019;-75
2023/12/08 01:53:49;;;;;;;15.30;10.65;;;;;;;1.88;100.00;100765.53;6101422;23;20492;-75
2023/12/08 01:56:16;;;;;;;18.45;11.13;;;;;;;1.88;100.00;100762.91;6075210;23;20106;-75
2023/12/08 01:58:44;;;;;;;18.60;11.65;;;;;;;1.88;100.00;100762.91;6100867;23;20038;-75
2023/12/08 02:01:10;;;;;;;15.68;11.25;;;;;;;1.89;100.00;100761.78;6101410;23;20019;-75
2023/12/08 02:03:40;;;;;;;17.65;10.57;;;;;;;1.90;100.00;100765.91;6100430;23;20014;-75
2023/12/08 02:06:07;;;;;;;18.33;11.10;;;;;;;1.90;100.00;100760.66;6101970;23;20026;-75
2023/12/08 02:08:35;;;;;;;17.98;11.13;;;;;;;1.92;100.00;100768.91;6101350;23;20039;-75
2023/12/08 02:11:01;;;;;;;17.55;11.07;;;;;;;1.92;100.00;100761.78;6101561;23;20078;-75
2023/12/08 02:13:28;;;;;;;19.13;10.77;;;;;;;1.94;100.00;100754.28;6074641;23;20449;-75
2023/12/08 02:16:07;;;;;;;19.65;10.93;;;;;;;1.93;100.00;100736.28;6100817;23;20018;-75
2023/12/08 02:18:36;;;;;;;17.50;10.52;;;;;;;1.94;100.00;100738.50;6100890;23;20540;-75
2023/12/08 02:21:04;;;;;;;16.13;10.45;;;;;;;1.93;100.00;100734.41;6101066;23;20094;-75
2023/12/08 02:23:30;;;;;;;14.63;9.65;;;;;;;1.94;100.00;100733.25;6075015;23;20038;-75
2023/12/08 02:25:57;;;;;;;16.20;10.45;;;;;;;1.95;100.00;100723.50;6075867;23;20033;-75
2023/12/08 02:28:24;;;;;;;15.65;10.27;;;;;;;1.95;100.00;100724.25;6100177;23;20015;-75
2023/12/08 02:30:56;;;;;;;15.88;10.50;;;;;;;1.95;100.00;100724.25;6101105;23;20046;-75
2023/12/08 02:33:30;;;;;;;17.38;11.25;;;;;;;1.95;100.00;100713.00;6100688;23;20022;-75
2023/12/08 02:35:59;;;;;;;16.77;10.52;;;;;;;1.96;100.00;100701.38;6101001;23;20023;-75
2023/12/08 02:38:26;;;;;;;14.38;10.32;;;;;;;1.95;100.00;100698.00;6100940;23;20014;-75
2023/12/08 02:40:56;;;;;;;15.27;10.18;;;;;;;1.95;100.00;100697.25;6100734;23;20019;-75
2023/12/08 02:43:23;;;;;;;14.90;9.77;;;;;;;1.95;100.00;100686.75;6074859;23;20067;-75
2023/12/08 02:45:49;;;;;;;14.35;10.60;;;;;;;1.94;100.00;100687.88;6101367;23;20102;-75
2023/12/08 02:48:16;;;;;;;22.63;10.65;;;;;;;1.94;100.00;100682.63;6100750;23;20035;-75
2023/12/08 02:50:43;;;;;;;15.55;10.27;;;;;;;1.93;100.00;100668.00;6100494;23;20050;-75
2023/12/08 02:53:09;;;;;;;20.70;10.68;;;;;;;1.92;100.00;100664.63;6100996;23;20019;-74
2023/12/08 02:55:36;;;;;;;19.10;11.10;;;;;;;1.90;100.00;100666.88;6075189;23;21002;-74
2023/12/08 02:58:02;;;;;;;19.85;10.93;;;;;;;1.88;100.00;100663.91;6101574;23;20042;-75
2023/12/08 03:00:29;;;;;;;21.83;10.27;;;;;;;1.88;100.00;100655.28;6100807;23;20420;-74
2023/12/08 03:02:56;;;;;;;16.92;10.40;;;;;;;1.85;100.00;100654.16;6101484;23;20019;-75
2023/12/08 03:05:22;;;;;;;18.90;10.20;;;;;;;1.84;100.00;100646.66;6100290;23;20461;-75
2023/12/08 03:07:49;;;;;;;16.40;10.52;;;;;;;1.82;100.00;100652.28;6100879;23;20018;-74
2023/12/08 03:10:15;;;;;;;15.55;9.93;;;;;;;1.82;100.00;100651.53;6100442;23;20015;-74
2023/12/08 03:12:42;;;;;;;12.57;9.88;;;;;;;1.80;100.00;100645.94;6100246;23;20039;-74
2023/12/08 03:15:09;;;;;;;17.15;10.50;;;;;;;1.79;100.00;100644.44;6099915;23;20023;-74
2023/12/08 03:17:36;;;;;;;15.00;9.05;;;;;;;1.77;100.00;100636.19;6100192;23;20051;-75
2023/12/08 03:20:03;;;;;;;14.68;9.45;;;;;;;1.75;100.00;100630.56;6100637;23;20070;-74
2023/12/08 03:22:30;;;;;;;16.88;10.45;;;;;;;1.74;100.00;100634.31;6099499;23;20082;-74
2023/12/08 03:24:56;;;;;;;19.35;10.25;;;;;;;1.73;100.00;100617.81;6100572;23;20023;-74
2023/12/08 03:27:23;;;;;;;17.80;10.50;;;;;;;1.73;100.00;100628.31;6075007;23;20480;-74
2023/12/08 03:29:50;;;;;;;14.77;10.18;;;;;;;1.73;100.00;100620.44;6101762;23;20022;-74
2023/12/08 03:32:16;;;;;;;16.45;9.98;;;;;;;1.71;100.00;100620.09;6101891;23;20019;-75
2023/12/08 03:34:43;;;;;;;16.88;10.75;;;;;;;1.71;100.00;100619.34;6101988;23;20019;-74
2023/12/08 03:37:09;;;;;;;14.50;9.82;;;;;;;1.73;100.00;100611.84;6101652;23;20086;-74
2023/12/08 03:39:36;;;;;;;15.75;9.65;;;;;;;1.72;100.00;100608.47;6101590;23;20125;-74
2023/12/08 03:42:03;;;;;;;14.55;9.38;;;;;;;1.72;100.00;100620.84;6101708;23;20445;-74
2023/12/08 03:44:29;;;;;;;12.18;8.75;;;;;;;1.71;100.00;100608.84;6101765;23;20023;-74
2023/12/08 03:46:56;;;;;;;19.58;10.15;;;;;;;1.68;100.00;100608.47;6102472;23;20015;-74
2023/12/08 03:49:22;;;;;;;15.10;9.10;;;;;;;1.66;100.00;100609.97;6101613;23;20014;-75
2023/12/08 03:51:49;;;;;;;14.90;9.75;;;;;;;1.64;100.00;100615.59;6102255;23;20098;-75
2023/12/08 03:54:15;;;;;;;15.13;9.65;;;;;;;1.63;100.00;100616.72;6100939;23;20098;-75
2023/12/08 03:56:42;;;;;;;16.27;10.43;;;;;;;1.64;100.00;100612.97;6101451;23;20026;-75
2023/12/08 03:59:09;;;;;;;15.75;9.63;;;;;;;1.64;100.00;100614.84;6102030;23;20025;-75
2023/12/08 04:01:36;;;;;;;14.60;10.38;;;;;;;1.62;100.00;100612.63;6101242;23;20023;-74
2023/12/08 04:04:02;;;;;;;17.70;10.95;;;;;;;1.61;100.00;100615.63;6101270;23;20019;-74
2023/12/08 04:06:29;;;;;;;16.70;10.25;;;;;;;1.61;100.00;100621.63;6100605;23;20023;-74
2023/12/08 04:08:56;;;;;;;16.85;10.68;;;;;;;1.61;100.00;100623.50;6102150;23;20453;-74
2023/12/08 04:11:22;;;;;;;14.57;9.93;;;;;;;1.61;100.00;100618.25;6101222;23;20015;-74
2023/12/08 04:13:49;;;;;;;14.73;9.57;;;;;;;1.59;100.00;100616.03;6102501;23;20038;-74
2023/12/08 04:16:16;;;;;;;15.15;10.25;;;;;;;1.60;100.00;100617.50;6076707;23;20070;-74
2023/12/08 04:18:42;;;;;;;14.18;10.25;;;;;;;1.61;100.00;100626.84;6101884;23;20015;-74
2023/12/08 04:21:15;;;;;;;15.95;10.93;;;;;;;1.61;100.00;100624.25;6101766;23;20022;-74
2023/12/08 04:23:42;;;;;;;17.02;10.48;;;;;;;1.61;100.00;100619.00;6101583;23;20494;-74
2023/12/08 04:26:09;;;;;;;15.65;10.45;;;;;;;1.62;100.00;100633.59;6102039;23;20025;-74
2023/12/08 04:28:35;;;;;;;18.00;10.40;;;;;;;1.62;100.00;100633.59;6101379;23;20011;-74
2023/12/08 04:31:02;;;;;;;15.70;10.23;;;;;;;1.65;100.00;100627.59;6101949;23;20805;-74
2023/12/08 04:33:28;;;;;;;14.50;10.38;;;;;;;1.65;100.00;100635.47;6101283;23;20046;-74
2023/12/08 04:35:55;;;;;;;18.75;10.50;;;;;;;1.66;100.00;100634.34;6102417;23;20050;-74
2023/12/08 04:38:21;;;;;;;17.63;10.30;;;;;;;1.64;100.00;100630.59;6100818;23;20011;-74
2023/12/08 04:40:48;;;;;;;17.38;10.27;;;;;;;1.64;100.00;100626.09;6101663;23;20433;-74
2023/12/08 04:43:15;;;;;;;21.33;11.52;;;;;;;1.65;100.00;100621.59;6100964;23;20091;-75
2023/12/08 04:45:41;;;;;;;22.73;11.25;;;;;;;1.63;100.00;100616.72;6101067;23;20787;-75
2023/12/08 04:48:08;;;;;;;20.33;10.98;;;;;;;1.63;100.00;100613.38;6101368;23;20086;-75
2023/12/08 04:50:35;;;;;;;16.52;10.80;;;;;;;1.64;100.00;100622.72;6100993;23;20015;-75
2023/12/08 04:53:02;;;;;;;15.18;10.65;;;;;;;1.64;100.00;100627.97;6101299;23;20018;-75
2023/12/08 04:55:28;;;;;;;16.45;9.77;;;;;;;1.63;100.00;100619.34;6100972;23;20564;-75
2023/12/08 04:57:55;;;;;;;17.17;11.07;;;;;;;1.63;100.00;100616.00;6102062;23;20053;-75
2023/12/08 05:00:21;;;;;;;15.60;10.30;;;;;;;1.64;100.00;100617.47;6100139;23;20054;-75
2023/12/08 05:02:48;;;;;;;17.83;10.57;;;;;;;1.65;100.00;100621.59;6101877;23;20158;-75
2023/12/08 05:05:15;;;;;;;16.92;10.73;;;;;;;1.65;100.00;100627.59;6100849;23;20019;-75
2023/12/08 05:07:42;;;;;;;17.73;9.50;;;;;;;1.66;100.00;100623.09;6101054;23;20475;-75
2023/12/08 05:10:09;;;;;;;18.67;11.13;;;;;;;1.65;100.00;100629.47;6101386;23;20108;-75
2023/12/08 05:12:36;;;;;;;17.30;10.45;;;;;;;1.64;100.00;100622.72;6100757;23;20022;-75
2023/12/08 05:15:02;;;;;;;19.73;11.38;;;;;;;1.66;100.00;100605.47;6101858;23;20066;-75
2023/12/08 05:17:29;;;;;;;20.15;10.93;;;;;;;1.67;100.00;100591.22;6101027;23;20499;-75
2023/12/08 05:19:57;;;;;;;18.95;11.15;;;;;;;1.66;100.00;100591.59;6101213;23;20015;-75
2023/12/08 05:22:23;;;;;;;19.67;11.20;;;;;;;1.67;100.00;100598.34;6100578;23;20507;-75
2023/12/08 05:24:50;;;;;;;16.80;11.50;;;;;;;1.68;100.00;100605.84;6101525;23;20050;-75
2023/12/08 05:27:17;;;;;;;16.42;10.63;;;;;;;1.68;100.00;100597.97;6101609;23;20025;-75
2023/12/08 05:29:43;;;;;;;21.05;11.68;;;;;;;1.70;100.00;100591.59;6100787;23;20015;-75
2023/12/08 05:32:10;;;;;;;16.75;10.80;;;;;;;1.69;100.00;100588.22;6101206;23;20452;-75
2023/12/08 05:34:36;;;;;;;17.58;11.27;;;;;;;1.70;100.00;100581.84;6100767;23;20026;-75
2023/12/08 05:37:03;;;;;;;16.95;11.05;;;;;;;1.71;100.00;100588.59;6100580;23;20019;-75
2023/12/08 05:39:31;;;;;;;18.50;11.18;;;;;;;1.70;100.00;100581.84;6100673;23;20114;-75
2023/12/08 05:41:57;;;;;;;19.20;11.02;;;;;;;1.71;100.00;100585.22;6075853;23;20030;-75
2023/12/08 05:44:24;;;;;;;17.67;11.02;;;;;;;1.71;100.00;100598.34;6101048;23;20039;-75
2023/12/08 05:46:50;;;;;;;16.05;11.02;;;;;;;1.70;100.00;100592.34;6101893;23;20019;-75
2023/12/08 05:49:17;;;;;;;18.05;11.75;;;;;;;1.70;100.00;100586.34;6074864;23;20457;-74
2023/12/08 05:51:44;;;;;;;16.40;10.73;;;;;;;1.69;100.00;100585.59;6101639;23;20061;-75
2023/12/08 05:54:11;;;;;;;17.00;10.60;;;;;;;1.70;100.00;100591.59;6101455;23;20018;-75
2023/12/08 05:56:38;;;;;;;21.95;11.00;;;;;;;1.71;100.00;100599.09;6100811;23;20089;-75
2023/12/08 05:59:05;;;;;;;19.00;11.35;;;;;;;1.73;100.00;100593.47;6101654;23;20026;-75
2023/12/08 06:01:32;;;;;;;19.83;11.77;;;;;;;1.72;100.00;100597.22;6100790;23;20035;-75
2023/12/08 06:03:58;;;;;;;19.20;11.93;;;;;;;1.73;100.00;100591.59;6100970;23;20479;-75
2023/12/08 06:06:27;;;;;;;18.23;11.45;;;;;;;1.74;100.00;100597.56;6074910;23;20027;-75
2023/12/08 06:08:55;;;;;;;16.73;11.43;;;;;;;1.73;100.00;100602.06;6101686;23;20070;-75
2023/12/08 06:11:22;;;;;;;17.67;11.15;;;;;;;1.74;100.00;100603.56;6100690;23;20037;-75
2023/12/08 06:13:48;;;;;;;19.88;12.57;;;;;;;1.76;100.00;100601.31;6101573;23;20075;-75
2023/12/08 06:16:15;;;;;;;19.98;11.77;;;;;;;1.76;100.00;100611.06;6101331;23;20090;-75
2023/12/08 06:18:42;;;;;;;20.02;11.68;;;;;;;1.76;100.00;100609.19;6101216;23;20015;-75
2023/12/08 06:21:08;;;;;;;22.77;13.00;;;;;;;1.76;100.00;100616.31;6101193;23;20453;-75
2023/12/08 06:23:35;;;;;;;19.20;12.00;;;;;;;1.76;100.00;100611.81;6100439;23;20052;-75
2023/12/08 06:26:02;;;;;;;21.42;11.98;;;;;;;1.76;100.00;100603.19;6101201;23;20022;-75
2023/12/08 06:28:29;;;;;;;24.13;11.85;;;;;;;1.78;100.00;100608.81;6099886;23;20014;-75
2023/12/08 06:30:55;;;;;;;17.02;11.38;;;;;;;1.80;100.00;100601.31;6100820;23;20037;-75
2023/12/08 06:33:22;;;;;;;17.67;11.25;;;;;;;1.81;100.00;100608.78;6099896;23;20018;-75
2023/12/08 06:35:49;;;;;;;17.05;11.38;;;;;;;1.82;100.00;100606.91;6101198;23;20011;-75
2023/12/08 06:38:16;;;;;;;20.35;11.68;;;;;;;1.83;100.00;100613.66;6100251;23;20055;-75
2023/12/08 06:40:42;;;;;;;20.02;12.07;;;;;;;1.83;100.00;100619.66;6100183;23;20057;-74
2023/12/08 06:43:09;;;;;;;21.10;12.05;;;;;;;1.84;100.00;100617.78;6101054;23;20481;-75
2023/12/08 06:45:35;;;;;;;15.98;10.93;;;;;;;1.85;100.00;100612.16;6101054;23;20015;-75
2023/12/08 06:48:03;;;;;;;18.67;12.00;;;;;;;1.86;100.00;100618.91;6101323;23;20479;-75
2023/12/08 06:50:30;;;;;;;20.48;12.20;;;;;;;1.86;100.00;100620.78;6100837;23;20491;-75
2023/12/08 06:52:57;;;;;;;18.38;11.52;;;;;;;1.87;100.00;100603.91;6101285;23;20015;-74
2023/12/08 06:55:23;;;;;;;23.13;12.45;;;;;;;1.88;100.00;100613.28;6100301;23;20089;-75
2023/12/08 06:57:50;;;;;;;18.17;12.23;;;;;;;1.87;100.00;100612.53;6101163;23;20015;-75
2023/12/08 07:00:17;;;;;;;22.20;12.32;;;;;;;1.90;100.00;100600.50;6100773;23;20524;-75
2023/12/08 07:02:44;;;;;;;21.85;12.45;;;;;;;1.91;100.00;100607.25;6099723;23;20094;-77
2023/12/08 07:05:11;;;;;;;17.52;11.45;;;;;;;1.92;100.00;100609.50;6101366;23;20079;-75
2023/12/08 07:07:38;;;;;;;20.83;12.70;;;;;;;1.93;100.00;100612.88;6100626;23;20480;-75
2023/12/08 07:10:05;;;;;;;17.63;11.63;;;;;;;1.93;100.00;100611.00;6100992;23;20094;-75
2023/12/08 07:12:32;;;;;;;17.33;11.57;;;;;;;1.94;100.00;100617.75;6100576;23;20090;-75
2023/12/08 07:14:59;;;;;;;20.45;11.55;;;;;;;1.95;100.00;100614.00;6101054;23;20638;-75
2023/12/08 07:17:26;;;;;;;20.70;12.70;;;;;;;1.96;100.00;100612.84;6099554;23;20416;-76
2023/12/08 07:19:53;;;;;;;23.38;12.70;;;;;;;1.97;100.00;100611.72;6101046;23;20086;-76
2023/12/08 07:22:19;;;;;;;19.33;11.88;;;;;;;1.98;100.00;100615.09;6099605;23;20019;-76
2023/12/08 07:24:46;;;;;;;24.33;13.05;;;;;;;2.00;100.00;100618.06;6101108;23;20021;-76
2023/12/08 07:27:12;;;;;;;23.38;12.68;;;;;;;2.00;100.00;100613.56;6100324;23;20071;-76
2023/12/08 07:29:39;;;;;;;18.65;12.75;;;;;;;2.01;100.00;100622.19;6101074;23;20457;-78
2023/12/08 07:32:06;;;;;;;21.55;12.88;;;;;;;2.03;100.00;100627.06;6101089;23;20082;-76
2023/12/08 07:34:32;;;;;;;29.48;13.07;;;;;;;2.03;100.00;100635.69;6100672;23;20015;-76
2023/12/08 07:36:59;;;;;;;21.98;12.50;;;;;;;2.04;100.00;100634.56;6100823;23;20019;-77
2023/12/08 07:39:26;;;;;;;21.58;11.93;;;;;;;2.07;100.00;100631.16;6074324;23;20023;-75
2023/12/08 07:41:53;;;;;;;20.15;12.35;;;;;;;2.09;100.00;100636.78;6099838;23;20733;-75
2023/12/08 07:44:19;;;;;;;21.20;12.30;;;;;;;2.08;100.00;100635.28;6099905;23;20011;-76
2023/12/08 07:46:46;;;;;;;22.52;12.35;;;;;;;2.10;100.00;100640.91;6099915;23;20017;-75
2023/12/08 07:49:12;;;;;;;24.45;13.05;;;;;;;2.11;100.00;100647.66;6100506;23;20029;-76
2023/12/08 07:51:39;;;;;;;21.90;13.05;;;;;;;2.10;100.00;100643.53;6100445;23;20015;-75
2023/12/08 07:54:06;;;;;;;21.90;12.30;;;;;;;2.12;100.00;100640.53;6075806;23;20038;-77
2023/12/08 07:56:33;;;;;;;25.90;13.18;;;;;;;2.11;100.00;100647.66;6101427;23;20386;-75
2023/12/08 07:59:00;;;;;;;25.23;12.48;;;;;;;2.15;100.00;100634.50;6076270;23;20465;-75
2023/12/08 08:01:27;;;;;;;22.63;12.95;;;;;;;2.17;100.00;100642.75;6099638;23;20019;-75
2023/12/08 08:03:53;;;;;;;23.95;12.00;;;;;;;2.15;100.00;100637.88;6102039;23;20420;-76
2023/12/08 08:06:20;;;;;;;27.58;13.18;;;;;;;2.16;100.00;100649.88;6100761;23;20015;-77
2023/12/08 08:08:47;;;;;;;22.88;13.07;;;;;;;2.17;100.00;100640.13;6100552;23;20425;-76
2023/12/08 08:11:13;;;;;;;20.00;12.63;;;;;;;2.19;100.00;100646.47;6100272;23;20022;-76
2023/12/08 08:13:40;;;;;;;22.73;13.10;;;;;;;2.21;100.00;100653.97;6101743;23;20021;-75
2023/12/08 08:16:06;;;;;;;20.35;12.85;;;;;;;2.22;100.00;100660.72;6101378;23;20015;-75
2023/12/08 08:18:33;;;;;;;27.40;12.50;;;;;;;2.22;100.00;100671.97;6101135;23;20026;-75
2023/12/08 08:21:00;;;;;;;26.02;13.32;;;;;;;2.23;100.00;100673.47;6101456;23;20018;-75
2023/12/08 08:23:26;;;;;;;22.85;13.30;;;;;;;2.24;100.00;100668.97;6101054;23;20019;-75
2023/12/08 08:25:53;;;;;;;20.85;12.52;;;;;;;2.25;100.00;100670.47;6101643;23;20022;-75
2023/12/08 08:28:21;;;;;;;22.92;13.25;;;;;;;2.28;100.00;100672.34;6101248;23;20023;-75
2023/12/08 08:30:47;;;;;;;20.60;12.13;;;;;;;2.30;100.00;100667.44;6101311;23;20054;-75
2023/12/08 08:33:14;;;;;;;23.63;12.73;;;;;;;2.31;100.00;100661.81;6075728;23;20025;-75
2023/12/08 08:35:41;;;;;;;19.88;12.00;;;;;;;2.33;100.00;100664.06;6101349;23;20694;-75
2023/12/08 08:38:08;;;;;;;26.95;12.50;;;;;;;2.34;100.00;100668.94;6101794;23;20019;-75
2023/12/08 08:40:34;;;;;;;21.38;12.52;;;;;;;2.36;100.00;100673.06;6100742;23;20026;-75
2023/12/08 08:43:01;;;;;;;19.85;12.02;;;;;;;2.36;100.00;100671.16;6101484;23;20093;-75
2023/12/08 08:45:27;;;;;;;25.08;12.25;;;;;;;2.37;100.00;100669.28;6075093;23;20054;-75
2023/12/08 08:47:54;;;;;;;19.33;10.95;;;;;;;2.38;100.00;100670.78;6101384;23;20039;-75
2023/12/08 08:50:22;;;;;;;21.70;11.77;;;;;;;2.39;100.00;100670.41;6101330;23;20548;-76
2023/12/08 08:52:49;;;;;;;20.20;11.80;;;;;;;2.40;100.00;100669.25;6101935;23;20372;-76
2023/12/08 08:55:16;;;;;;;16.30;10.98;;;;;;;2.42;100.00;100671.47;6100789;23;20018;-76
2023/12/08 08:57:44;;;;;;;20.20;11.70;;;;;;;2.45;100.00;100675.97;6101105;23;20023;-75
2023/12/08 09:00:12;;;;;;;18.25;11.00;;;;;;;2.46;100.00;100672.97;6100717;23;20090;-75
2023/12/08 09:02:41;;;;;;;20.10;12.00;;;;;;;2.48;100.00;100686.47;6101160;23;20022;-75
2023/12/08 09:05:08;;;;;;;22.33;12.68;;;;;;;2.50;100.00;100688.72;6101653;23;20015;-75
2023/12/08 09:07:35;;;;;;;23.13;12.35;;;;;;;2.52;100.00;100689.81;6075288;23;20026;-75
2023/12/08 09:10:03;;;;;;;21.10;12.23;;;;;;;2.55;100.00;100696.94;6101827;23;20015;-75
2023/12/08 09:12:30;;;;;;;24.58;13.38;;;;;;;2.57;100.00;100699.94;6100298;23;20477;-75
2023/12/08 09:14:56;;;;;;;22.83;11.95;;;;;;;2.57;100.00;100694.69;6101451;23;20022;-75
2023/12/08 09:17:23;;;;;;;23.70;12.77;;;;;;;2.61;100.00;100692.03;6100756;23;20520;-74
2023/12/08 09:19:50;;;;;;;20.42;12.90;;;;;;;2.61;100.00;100686.78;6075909;23;20046;-73
2023/12/08 09:22:17;;;;;;;32.15;13.85;;;;;;;2.65;100.00;100690.13;6101494;23;20019;-74
2023/12/08 09:24:44;;;;;;;29.27;14.48;;;;;;;2.68;100.00;100689.34;6100981;23;20019;-75
2023/12/08 09:27:10;;;;;;;25.25;13.52;;;;;;;2.74;100.00;100700.22;6100502;23;20086;-75
2023/12/08 09:29:37;;;;;;;28.10;13.13;;;;;;;2.74;100.00;100700.97;6075125;23;20015;-75
2023/12/08 09:32:05;;;;;;;31.30;12.73;;;;;;;2.76;100.00;100701.31;6075664;23;20074;-75
2023/12/08 09:34:31;;;;;;;25.42;12.70;;;;;;;2.78;100.00;100699.06;6075027;23;20487;-75
2023/12/08 09:36:59;;;;;;;29.80;14.02;;;;;;;2.82;100.00;100696.38;6101798;23;20421;-75
2023/12/08 09:39:46;;;;;;;29.88;14.57;;;;;;;2.83;100.00;100698.63;6101269;23;20460;-75
2023/12/08 09:43:01;;;;;;;26.33;13.70;;;;;;;2.87;100.00;100695.97;6100288;23;20792;-74
2023/12/08 09:45:28;;;;;;;25.85;12.10;;;;;;;2.89;100.00;100696.31;6012049;23;20458;-74
2023/12/08 09:47:55;;;;;;;26.35;13.10;;;;;;;2.91;100.00;100700.06;6084180;23;20160;-74
2023/12/08 09:50:22;;;;;;;28.50;14.27;;;;;;;2.93;100.00;100702.31;6100987;23;20153;-74
2023/12/08 09:52:52;;;;;;;29.02;13.30;;;;;;;2.94;100.00;100701.16;6101726;23;20093;-74
2023/12/08 09:55:20;;;;;;;27.00;13.82;;;;;;;2.97;100.00;100703.03;6101329;23;20078;-74
2023/12/08 09:57:48;;;;;;;24.35;13.48;;;;;;;2.98;100.00;100700.00;6101659;23;20025;-74
2023/12/08 10:00:15;;;;;;;29.92;13.63;;;;;;;2.99;100.00;100698.13;6101416;23;20025;-74
2023/12/08 10:02:42;;;;;;;27.70;13.30;;;;;;;3.01;100.00;100696.59;6101144;23;20023;-74
2023/12/08 10:05:10;;;;;;;31.77;15.13;;;;;;;3.03;100.00;100696.22;6101387;23;20022;-74
2023/12/08 10:07:40;;;;;;;22.77;13.02;;;;;;;3.05;100.00;100688.69;6101501;23;20023;-74
2023/12/08 10:10:09;;;;;;;28.83;13.85;;;;;;;3.09;100.00;100699.94;6101676;23;20023;-74
2023/12/08 10:12:37;;;;;;;28.17;13.52;;;;;;;3.12;100.00;100699.16;6101179;23;20431;-74
2023/12/08 10:15:09;;;;;;;27.35;12.95;;;;;;;3.14;100.00;100698.78;6101307;23;20877;-74
2023/12/08 10:17:47;;;;;;;32.85;12.95;;;;;;;3.17;100.00;100703.25;6101079;23;20050;-74
2023/12/08 10:20:17;;;;;;;27.02;13.63;;;;;;;3.19;100.00;100703.63;6101351;23;20019;-75
2023/12/08 10:22:48;;;;;;;27.35;13.85;;;;;;;3.20;100.00;100708.47;6101598;23;20025;-74
2023/12/08 10:25:17;;;;;;;36.15;14.43;;;;;;;3.23;100.00;100710.31;6100777;23;20453;-74
2023/12/08 10:27:49;;;;;;;23.95;14.05;;;;;;;3.27;100.00;100702.41;6101090;23;20095;-74
2023/12/08 10:30:17;;;;;;;27.15;14.05;;;;;;;3.31;100.00;100700.47;6075448;23;20769;-74
2023/12/08 10:32:45;;;;;;;32.88;14.95;;;;;;;3.34;100.00;100695.19;6101435;23;20026;-74
2023/12/08 10:35:13;;;;;;;29.67;14.52;;;;;;;3.38;100.00;100700.41;6101004;23;20015;-74
2023/12/08 10:37:40;;;;;;;36.80;14.45;;;;;;;3.43;100.00;100710.53;6100998;23;20082;-74
2023/12/08 10:40:09;;;;;;;26.52;13.45;;;;;;;3.47;100.00;100702.59;6101539;23;20015;-74
2023/12/08 10:42:36;;;;;;;31.08;14.18;;;;;;;3.50;100.00;100702.56;6100341;23;20025;-74
2023/12/08 10:45:11;;;;;;;34.28;14.25;;;;;;;3.52;100.00;100710.81;6101621;23;20018;-74
2023/12/08 10:47:43;;;;;;;23.80;14.07;;;;;;;3.56;100.00;100708.16;6100787;23;20023;-76
2023/12/08 10:50:13;;;;;;;34.70;14.20;;;;;;;3.60;100.00;100712.22;6102074;23;20019;-74
2023/12/08 10:52:40;;;;;;;32.42;15.10;;;;;;;3.65;100.00;100703.16;6075474;23;20520;-74
2023/12/08 10:55:08;;;;;;;27.70;14.80;;;;;;;3.68;100.00;100705.00;6100853;23;20098;-74
2023/12/08 10:57:36;;;;;;;35.47;15.18;;;;;;;3.71;100.00;100706.84;6100280;23;20054;-74
2023/12/08 11:00:12;;;;;;;37.97;15.70;;;;;;;3.76;100.00;100705.66;6101292;23;20022;-74
2023/12/08 11:02:42;;;;;;;39.30;16.13;;;;;;;3.79;100.00;100707.53;6100531;23;20093;-73
2023/12/08 11:05:13;;;;;;;40.58;15.32;;;;;;;3.85;100.00;100706.69;6100946;23;20019;-75
2023/12/08 11:07:44;;;;;;;36.42;16.17;;;;;;;3.92;100.00;100700.63;6100597;23;20019;-75
2023/12/08 11:10:12;;;;;;;46.28;15.40;;;;;;;3.93;100.00;100696.84;6101160;23;20015;-76